Time;durP1;ratioP1;P1;durP2;ratioP2;P2;SDS_P1;SDS_P2;PMS_P1;PMS_P2;Temp;Humidity;BMP_temperature;BMP_pressure;BME280_temperature;BME280_humidity;BME280_pressure;Samples;Min_cycle;Max_cycle;Signal;HPM_P1;HPM_P2
2024/01/19 00:00:44;;;;;;;1.17;1.17;;;;;;;-1.96;91.14;98157.47;6130032;23;20013;-88
2024/01/19 00:03:10;;;;;;;1.20;1.20;;;;;;;-1.94;91.13;98153.25;6155195;23;20081;-87
2024/01/19 00:05:35;;;;;;;1.10;1.10;;;;;;;-1.94;90.81;98155.84;6155045;23;20356;-88
2024/01/19 00:08:01;;;;;;;1.20;1.20;;;;;;;-1.91;91.00;98158.69;6130307;23;20045;-88
2024/01/19 00:10:27;;;;;;;1.20;1.20;;;;;;;-1.89;90.76;98166.63;6130444;23;20013;-88
2024/01/19 00:12:52;;;;;;;1.10;1.10;;;;;;;-1.81;91.04;98168.97;6129146;23;20075;-89
2024/01/19 00:15:17;;;;;;;1.15;1.15;;;;;;;-1.61;89.92;98170.31;6152366;23;20013;-90
2024/01/19 00:17:43;;;;;;;1.20;1.20;;;;;;;-1.79;90.08;98170.78;6126657;23;20049;-91
2024/01/19 00:20:09;;;;;;;1.20;1.20;;;;;;;-1.69;90.01;98173.19;6125340;23;20021;-89
2024/01/19 00:22:36;;;;;;;1.10;1.10;;;;;;;-1.70;89.57;98174.00;6150191;23;20005;-88
2024/01/19 00:25:02;;;;;;;1.20;1.20;;;;;;;-1.65;89.67;98177.84;6150115;23;20461;-89
2024/01/19 00:27:29;;;;;;;1.30;1.30;;;;;;;-1.68;89.75;98175.00;6148618;23;20433;-88
2024/01/19 00:29:55;;;;;;;1.10;1.10;;;;;;;-1.88;89.86;98169.34;6124160;23;20473;-89
2024/01/19 00:32:21;;;;;;;1.20;1.20;;;;;;;-1.92;90.22;98179.47;6149781;23;20513;-90
2024/01/19 00:34:46;;;;;;;1.10;1.10;;;;;;;-1.85;90.43;98195.69;6148620;23;20048;-89
2024/01/19 00:37:14;;;;;;;1.02;1.02;;;;;;;-1.81;90.13;98191.59;6124085;23;20050;-90
2024/01/19 00:39:40;;;;;;;1.10;1.10;;;;;;;-1.84;90.10;98199.22;6124492;23;20021;-88
2024/01/19 00:42:05;;;;;;;1.10;1.10;;;;;;;-1.76;89.55;98210.22;6152372;23;20016;-88
2024/01/19 00:44:31;;;;;;;1.20;1.20;;;;;;;-1.79;89.58;98203.03;6152127;23;20018;-87
2024/01/19 00:46:56;;;;;;;1.10;1.10;;;;;;;-1.78;89.50;98207.47;6152340;23;20009;-88
2024/01/19 00:49:22;;;;;;;1.20;1.20;;;;;;;-1.81;89.17;98213.41;6128909;23;20013;-88
2024/01/19 00:51:48;;;;;;;1.20;1.20;;;;;;;-1.83;89.52;98215.00;6156219;23;20040;-91
2024/01/19 00:54:14;;;;;;;1.20;1.20;;;;;;;-1.72;89.47;98214.84;6129830;23;20021;-90
2024/01/19 00:56:40;;;;;;;1.02;1.02;;;;;;;-1.70;89.31;98221.09;6129733;23;20024;-89
2024/01/19 00:59:05;;;;;;;1.10;1.10;;;;;;;-1.75;89.40;98220.75;6129691;23;20013;-89
2024/01/19 01:01:31;;;;;;;1.20;1.20;;;;;;;-1.73;89.38;98226.09;6106002;23;20028;-89
2024/01/19 01:03:58;;;;;;;1.20;1.20;;;;;;;-1.70;89.75;98227.22;6156165;23;20017;-90
2024/01/19 01:06:24;;;;;;;;;;;;;;;-1.58;89.08;98240.22;6131096;23;20010;-90
2024/01/19 01:08:49;;;;;;;1.20;1.20;;;;;;;-1.45;88.80;98248.09;6154695;23;19943;-89
2024/01/19 01:11:15;;;;;;;1.10;1.10;;;;;;;-1.51;88.50;98246.78;6131454;23;20005;-89
2024/01/19 01:13:40;;;;;;;1.10;1.10;;;;;;;-1.54;88.44;98244.84;6154807;23;20013;-89
2024/01/19 01:16:06;;;;;;;1.20;1.20;;;;;;;-1.41;88.39;98252.72;6129790;23;20022;-90
2024/01/19 01:18:31;;;;;;;1.20;1.20;;;;;;;-1.46;87.84;98254.13;6154143;23;20013;-88
2024/01/19 01:20:57;;;;;;;1.20;1.20;;;;;;;-1.54;88.23;98263.16;6155385;23;20023;-88
2024/01/19 01:23:24;;;;;;;1.20;1.20;;;;;;;-1.50;88.56;98261.66;6129885;23;20088;-87
2024/01/19 01:25:50;;;;;;;1.20;1.20;;;;;;;-1.49;88.04;98272.22;6154509;23;20024;-90
2024/01/19 01:28:16;;;;;;;1.20;1.20;;;;;;;-1.55;88.24;98277.94;6130035;23;20009;-89
2024/01/19 01:30:41;;;;;;;1.15;1.15;;;;;;;-1.49;88.25;98280.06;6154788;23;20005;-88
2024/01/19 01:33:07;;;;;;;1.20;1.20;;;;;;;-1.48;88.18;98291.47;6154582;23;20005;-88
2024/01/19 01:35:33;;;;;;;1.20;1.20;;;;;;;-1.53;88.78;98301.63;6129687;23;20015;-88
2024/01/19 01:37:59;;;;;;;1.10;1.10;;;;;;;-1.45;88.08;98297.78;6130092;23;20022;-89
2024/01/19 01:40:25;;;;;;;1.20;1.20;;;;;;;-1.50;88.41;98295.66;6155990;23;20020;-89
2024/01/19 01:43:00;;;;;;;1.10;1.10;;;;;;;-1.49;88.47;98303.59;6129961;23;20006;-89
2024/01/19 01:45:26;;;;;;;1.20;1.20;;;;;;;-1.56;88.65;98310.13;6153604;23;20044;-89
2024/01/19 01:47:52;;;;;;;1.13;1.13;;;;;;;-1.52;88.96;98306.03;6129586;23;20561;-89
2024/01/19 01:50:18;;;;;;;1.10;1.10;;;;;;;-1.48;88.93;98308.06;6154125;23;20020;-90
2024/01/19 01:52:43;;;;;;;1.10;1.10;;;;;;;-1.35;88.20;98312.41;6130051;23;20006;-88
2024/01/19 01:55:10;;;;;;;1.20;1.20;;;;;;;-1.47;88.46;98312.50;6152034;23;20013;-90
2024/01/19 01:57:36;;;;;;;1.30;1.30;;;;;;;-1.45;88.60;98313.47;6136700;23;20024;-90
2024/01/19 02:00:02;;;;;;;1.13;1.13;;;;;;;-1.49;88.13;98308.84;6130372;23;20013;-89
2024/01/19 02:02:29;;;;;;;1.10;1.10;;;;;;;-1.44;88.00;98317.00;6158001;23;20020;-88
2024/01/19 02:04:55;;;;;;;1.20;1.20;;;;;;;-1.52;88.13;98321.72;6138641;23;20013;-90
2024/01/19 02:07:20;;;;;;;1.20;1.20;;;;;;;-1.63;88.55;98330.53;6140942;23;20028;-88
2024/01/19 02:09:47;;;;;;;1.20;1.20;;;;;;;-1.79;89.25;98336.41;6143682;23;20024;-88
2024/01/19 02:12:15;;;;;;;1.20;1.20;;;;;;;-1.79;89.13;98331.16;6182757;23;20074;-89
2024/01/19 02:14:41;;;;;;;1.20;1.20;;;;;;;-1.79;89.30;98338.09;6131068;23;20010;-90
2024/01/19 02:17:06;;;;;;;1.20;1.20;;;;;;;-1.92;89.66;98347.69;6131229;23;20305;-89
2024/01/19 02:19:35;;;;;;;1.20;1.20;;;;;;;-1.93;89.84;98343.25;6156309;23;19998;-90
2024/01/19 02:22:04;;;;;;;1.20;1.20;;;;;;;-2.07;89.93;98342.28;6131584;23;20014;-89
2024/01/19 02:24:29;;;;;;;1.20;1.20;;;;;;;-1.98;89.64;98334.19;6147194;23;20014;-88
2024/01/19 02:26:56;;;;;;;1.20;1.20;;;;;;;-2.09;89.71;98342.97;6155498;23;20497;-88
2024/01/19 02:29:23;;;;;;;1.23;1.23;;;;;;;-2.14;89.98;98347.88;6131032;23;20048;-88
2024/01/19 02:31:49;;;;;;;1.15;1.15;;;;;;;-2.13;89.91;98349.69;6130779;23;20088;-89
2024/01/19 02:34:14;;;;;;;1.20;1.20;;;;;;;-2.26;90.55;98353.91;6130157;23;20037;-89
2024/01/19 02:36:39;;;;;;;1.10;1.10;;;;;;;-2.34;90.68;98348.16;6154858;23;20565;-86
2024/01/19 02:39:05;;;;;;;1.20;1.20;;;;;;;-2.42;90.79;98339.75;6155058;23;20779;-87
2024/01/19 02:41:31;;;;;;;1.17;1.17;;;;;;;-2.39;90.76;98362.59;6155079;23;20013;-89
2024/01/19 02:43:57;;;;;;;1.20;1.20;;;;;;;-2.38;90.86;98349.63;6105739;23;20009;-89
2024/01/19 02:46:22;;;;;;;1.10;1.10;;;;;;;-2.47;91.36;98348.97;6155458;23;20020;-88
2024/01/19 02:48:48;;;;;;;1.20;1.20;;;;;;;-2.55;91.25;98357.94;6155435;23;20013;-88
2024/01/19 02:51:13;;;;;;;1.10;1.10;;;;;;;-2.47;91.72;98361.13;6134528;23;20032;-88
2024/01/19 02:53:39;;;;;;;1.20;1.20;;;;;;;-2.44;91.69;98367.47;6155764;23;20018;-88
2024/01/19 02:56:05;;;;;;;1.10;1.10;;;;;;;-2.26;91.16;98372.22;6154187;23;20018;-89
2024/01/19 02:58:31;;;;;;;1.20;1.20;;;;;;;-2.27;91.39;98368.69;6129864;23;20041;-88
2024/01/19 03:00:57;;;;;;;1.20;1.20;;;;;;;-2.21;91.46;98374.34;6129122;23;20010;-89
2024/01/19 03:03:23;;;;;;;1.20;1.20;;;;;;;-2.17;91.65;98385.94;6129012;23;20009;-87
2024/01/19 03:05:48;;;;;;;1.20;1.20;;;;;;;-2.18;90.98;98390.25;6128625;23;20060;-88
2024/01/19 03:08:14;;;;;;;1.15;1.15;;;;;;;-2.06;90.91;98392.84;6152440;23;20021;-89
2024/01/19 03:10:39;;;;;;;1.20;1.20;;;;;;;-2.12;90.95;98402.84;6130678;23;20013;-88
2024/01/19 03:13:05;;;;;;;1.20;1.20;;;;;;;-2.14;90.94;98399.25;6158536;23;20076;-89
2024/01/19 03:15:30;;;;;;;1.20;1.20;;;;;;;-2.13;90.85;98398.44;6131050;23;20013;-89
2024/01/19 03:17:56;;;;;;;1.20;1.20;;;;;;;-2.01;90.22;98404.56;6156167;23;20017;-88
2024/01/19 03:20:21;;;;;;;1.20;1.20;;;;;;;-2.00;89.97;98403.75;6132284;23;20043;-91
2024/01/19 03:22:46;;;;;;;1.00;1.00;;;;;;;-1.92;90.39;98405.19;6156940;23;20426;-88
2024/01/19 03:25:12;;;;;;;1.20;1.20;;;;;;;-1.85;89.27;98409.19;6133798;23;20358;-89
2024/01/19 03:27:37;;;;;;;1.20;1.20;;;;;;;-1.85;89.03;98407.47;6133892;23;20017;-90
2024/01/19 03:30:04;;;;;;;1.10;1.10;;;;;;;-1.87;89.33;98409.09;6134280;23;20010;-91
2024/01/19 03:32:29;;;;;;;1.30;1.30;;;;;;;-1.88;89.37;98407.25;6160600;23;20497;-90
2024/01/19 03:34:55;;;;;;;1.10;1.10;;;;;;;-1.85;89.32;98409.19;6131050;23;20013;-88
2024/01/19 03:37:20;;;;;;;1.20;1.20;;;;;;;-1.89;89.07;98407.13;6128643;23;20121;-86
2024/01/19 03:39:46;;;;;;;1.10;1.10;;;;;;;-1.98;89.30;98412.59;6151824;23;20013;-88
2024/01/19 03:42:11;;;;;;;1.10;1.10;;;;;;;-1.89;89.34;98426.34;6153553;23;20013;-87
2024/01/19 03:44:39;;;;;;;1.10;1.10;;;;;;;-1.85;89.05;98427.47;6153061;23;20010;-87
2024/01/19 03:47:04;;;;;;;1.20;1.20;;;;;;;-1.85;89.22;98417.94;6128490;23;20013;-88
2024/01/19 03:49:30;;;;;;;1.10;1.10;;;;;;;-1.80;88.92;98418.25;6153173;23;20014;-88
2024/01/19 03:52:03;;;;;;;1.20;1.20;;;;;;;-1.84;88.89;98418.84;6128707;23;20016;-88
2024/01/19 03:54:29;;;;;;;1.20;1.20;;;;;;;-1.82;88.59;98412.00;6153347;23;20019;-88
2024/01/19 03:57:00;;;;;;;1.20;1.20;;;;;;;-1.84;88.57;98417.13;6154321;23;20013;-89
2024/01/19 03:59:26;;;;;;;1.17;1.17;;;;;;;-1.88;88.17;98415.09;6154181;23;20017;-89
2024/01/19 04:01:53;;;;;;;1.27;1.27;;;;;;;-1.73;87.93;98419.59;6156975;23;20014;-90
2024/01/19 04:04:18;;;;;;;1.17;1.17;;;;;;;-1.78;87.98;98423.59;6156894;23;20156;-88
2024/01/19 04:06:45;;;;;;;1.10;1.10;;;;;;;-1.73;87.88;98416.97;6132688;23;20013;-88
2024/01/19 04:09:15;;;;;;;1.20;1.20;;;;;;;-1.70;87.27;98420.72;6133370;23;20018;-88
2024/01/19 04:11:41;;;;;;;1.10;1.10;;;;;;;-1.78;87.81;98416.66;6133048;23;20009;-87
2024/01/19 04:14:08;;;;;;;1.10;1.10;;;;;;;-1.81;88.14;98414.75;6158568;23;20199;-87
2024/01/19 04:16:33;;;;;;;1.20;1.20;;;;;;;-1.78;88.36;98415.75;6138169;23;20171;-87
2024/01/19 04:18:59;;;;;;;1.10;1.10;;;;;;;-1.79;88.11;98424.41;6137886;23;20021;-90
2024/01/19 04:21:24;;;;;;;1.15;1.15;;;;;;;-1.79;87.55;98422.69;6133125;23;20009;-88
2024/01/19 04:23:49;;;;;;;1.20;1.20;;;;;;;-1.83;87.59;98428.47;6154488;23;20048;-88
2024/01/19 04:26:15;;;;;;;1.20;1.20;;;;;;;-1.91;87.54;98422.72;6154048;23;20121;-87
2024/01/19 04:28:40;;;;;;;1.10;1.10;;;;;;;-1.93;87.87;98426.91;6155041;23;20013;-89
2024/01/19 04:31:06;;;;;;;1.27;1.27;;;;;;;-1.92;87.84;98428.72;6155780;23;20452;-89
2024/01/19 04:33:32;;;;;;;1.20;1.20;;;;;;;-1.83;87.91;98433.72;6161947;23;20017;-88
2024/01/19 04:35:58;;;;;;;1.10;1.10;;;;;;;-1.79;87.97;98434.84;6127935;23;20270;-88
2024/01/19 04:38:23;;;;;;;1.10;1.10;;;;;;;-1.83;87.59;98438.94;6151969;23;20014;-87
2024/01/19 04:40:49;;;;;;;1.10;1.10;;;;;;;-1.73;87.05;98440.50;6151497;23;20013;-88
2024/01/19 04:43:14;;;;;;;1.10;1.10;;;;;;;-1.82;86.44;98436.47;6152290;23;20005;-88
2024/01/19 04:45:39;;;;;;;1.10;1.10;;;;;;;-1.93;87.28;98439.09;6129795;23;20013;-87
2024/01/19 04:48:05;;;;;;;1.20;1.20;;;;;;;-2.02;87.36;98443.63;6129102;23;20220;-90
2024/01/19 04:50:31;;;;;;;1.20;1.20;;;;;;;-2.20;88.43;98441.50;6153804;23;20127;-88
2024/01/19 04:52:56;;;;;;;1.20;1.20;;;;;;;-2.42;88.63;98449.47;6129506;23;19999;-88
2024/01/19 04:55:22;;;;;;;1.20;1.20;;;;;;;-2.55;88.94;98453.66;6129486;23;20037;-89
2024/01/19 04:57:47;;;;;;;1.20;1.20;;;;;;;-2.58;90.56;98462.19;6128380;23;20052;-88
2024/01/19 05:00:14;;;;;;;1.15;1.15;;;;;;;-2.78;90.27;98463.25;6127377;23;20009;-88
2024/01/19 05:02:39;;;;;;;1.20;1.20;;;;;;;-2.87;90.74;98470.41;6152752;23;20009;-89
2024/01/19 05:05:05;;;;;;;1.20;1.20;;;;;;;-3.01;91.07;98466.75;6128799;23;20047;-89
2024/01/19 05:07:30;;;;;;;1.20;1.20;;;;;;;-3.12;91.37;98473.72;6152410;23;20025;-89
2024/01/19 05:09:57;;;;;;;1.20;1.20;;;;;;;-3.12;92.46;98481.53;6151778;23;20001;-89
2024/01/19 05:12:23;;;;;;;1.20;1.20;;;;;;;-3.21;92.53;98480.84;6125607;23;20005;-88
2024/01/19 05:14:49;;;;;;;1.20;1.20;;;;;;;-3.22;92.38;98484.22;6150952;23;20164;-90
2024/01/19 05:17:15;;;;;;;1.15;1.15;;;;;;;-3.29;92.32;98484.56;6124947;23;20033;-89
2024/01/19 05:19:41;;;;;;;1.30;1.30;;;;;;;-3.39;93.45;98492.44;6150944;23;20061;-89
2024/01/19 05:22:06;;;;;;;1.17;1.17;;;;;;;-3.38;93.22;98495.16;6126073;23;20017;-90
2024/01/19 05:24:32;;;;;;;1.25;1.25;;;;;;;-3.25;93.33;98498.75;6151014;23;20017;-89
2024/01/19 05:26:57;;;;;;;1.27;1.27;;;;;;;-3.17;93.68;98502.84;6150606;23;20386;-88
2024/01/19 05:29:24;;;;;;;1.25;1.25;;;;;;;-3.26;93.00;98499.53;6126062;23;20010;-89
2024/01/19 05:31:50;;;;;;;1.23;1.23;;;;;;;-3.46;93.69;98492.75;6129645;23;20429;-87
2024/01/19 05:34:15;;;;;;;1.20;1.20;;;;;;;-3.54;94.23;98512.09;6153810;23;20020;-89
2024/01/19 05:36:42;;;;;;;1.20;1.20;;;;;;;-3.41;94.41;98525.31;6130378;23;20017;-88
2024/01/19 05:39:07;;;;;;;1.30;1.30;;;;;;;-3.51;94.58;98531.50;6128807;23;20009;-89
2024/01/19 05:41:33;;;;;;;1.20;1.20;;;;;;;-3.34;94.51;98518.91;6155713;23;20079;-88
2024/01/19 05:43:59;;;;;;;1.20;1.20;;;;;;;-3.33;94.62;98526.84;6154423;23;20009;-90
2024/01/19 05:46:25;;;;;;;1.27;1.27;;;;;;;-3.22;94.38;98530.28;6157928;23;20524;-88
2024/01/19 05:48:52;;;;;;;1.20;1.20;;;;;;;-2.92;94.42;98547.44;6129713;23;20013;-89
2024/01/19 05:51:18;;;;;;;1.25;1.25;;;;;;;-2.85;94.15;98547.13;6130149;23;20387;-88
2024/01/19 05:53:44;;;;;;;1.30;1.30;;;;;;;-2.72;94.34;98551.59;6130792;23;20056;-88
2024/01/19 05:56:09;;;;;;;1.20;1.20;;;;;;;-2.67;93.86;98558.09;6130188;23;20430;-89
2024/01/19 05:58:36;;;;;;;1.20;1.20;;;;;;;-2.60;93.77;98557.75;6130146;23;20017;-89
2024/01/19 06:01:02;;;;;;;1.20;1.20;;;;;;;-2.56;93.35;98562.44;6154200;23;20025;-89
2024/01/19 06:03:35;;;;;;;1.20;1.20;;;;;;;-2.50;93.85;98560.28;6129718;23;20005;-88
2024/01/19 06:06:03;;;;;;;1.10;1.10;;;;;;;-2.53;93.30;98564.38;6127490;23;20013;-89
2024/01/19 06:08:29;;;;;;;1.20;1.20;;;;;;;-2.43;93.52;98578.25;6129660;23;20049;-89
2024/01/19 06:10:55;;;;;;;1.20;1.20;;;;;;;-2.42;93.36;98569.63;6154431;23;20013;-89
2024/01/19 06:13:20;;;;;;;1.20;1.20;;;;;;;-2.47;92.80;98583.13;6129966;23;20017;-90
2024/01/19 06:15:46;;;;;;;1.20;1.20;;;;;;;-2.40;92.77;98588.91;6130125;23;20100;-90
2024/01/19 06:18:15;;;;;;;1.20;1.20;;;;;;;-2.53;92.80;98591.41;6153037;23;20389;-88
2024/01/19 06:20:42;;;;;;;1.20;1.20;;;;;;;-2.43;93.10;98588.69;6129675;23;20036;-90
2024/01/19 06:23:12;;;;;;;1.20;1.20;;;;;;;-2.33;92.52;98590.31;6130189;23;20055;-89
2024/01/19 06:25:39;;;;;;;1.15;1.15;;;;;;;-2.50;92.33;98604.69;6124573;23;20591;-89
2024/01/19 06:28:06;;;;;;;1.10;1.10;;;;;;;-2.52;91.96;98603.66;6155330;23;20226;-88
2024/01/19 06:30:32;;;;;;;1.30;1.30;;;;;;;-2.52;92.26;98608.88;6130285;23;20017;-89
2024/01/19 06:33:06;;;;;;;1.20;1.20;;;;;;;-2.39;92.10;98615.97;6130365;23;20009;-90
2024/01/19 06:35:35;;;;;;;1.20;1.20;;;;;;;-2.30;91.86;98620.97;6154916;23;20071;-89
2024/01/19 06:38:00;;;;;;;1.20;1.20;;;;;;;-2.18;91.66;98629.78;6130211;23;20025;-90
2024/01/19 06:40:28;;;;;;;1.20;1.20;;;;;;;-2.29;91.24;98628.94;6130076;23;20013;-89
2024/01/19 06:43:05;;;;;;;1.20;1.20;;;;;;;-2.29;91.62;98636.78;6105035;23;20338;-89
2024/01/19 06:45:38;;;;;;;1.20;1.20;;;;;;;-2.20;91.38;98639.22;6129452;23;20099;-88
2024/01/19 06:48:25;;;;;;;1.17;1.17;;;;;;;-2.27;91.20;98650.88;6154963;23;20065;-89
2024/01/19 06:50:58;;;;;;;1.20;1.20;;;;;;;-2.23;91.34;98650.31;6130410;23;20013;-88
2024/01/19 06:54:02;;;;;;;1.20;1.20;;;;;;;-2.20;90.98;98658.41;6147106;23;20017;-90
2024/01/19 06:56:37;;;;;;;1.20;1.20;;;;;;;-2.11;89.83;98666.00;6140075;23;20014;-90
2024/01/19 06:59:32;;;;;;;1.13;1.13;;;;;;;-2.16;89.78;98675.22;6156113;23;20021;-89
2024/01/19 07:02:05;;;;;;;1.13;1.13;;;;;;;-2.17;90.12;98681.22;6155144;23;20013;-90
2024/01/19 07:04:42;;;;;;;1.20;1.20;;;;;;;-2.11;89.71;98681.69;6156760;23;20016;-89
2024/01/19 07:07:08;;;;;;;1.20;1.20;;;;;;;-2.00;89.45;98683.47;6154829;23;20060;-90
2024/01/19 07:09:45;;;;;;;1.15;1.15;;;;;;;-1.90;87.83;98682.44;6130605;23;20009;-88
2024/01/19 07:12:18;;;;;;;1.20;1.20;;;;;;;-1.82;87.44;98692.72;6156115;23;20016;-91
2024/01/19 07:15:06;;;;;;;1.20;1.20;;;;;;;-1.87;87.13;98694.06;6131536;23;20017;-91
2024/01/19 07:17:51;;;;;;;1.10;1.10;;;;;;;-1.86;87.33;98698.50;6158064;23;20006;-90
2024/01/19 07:20:27;;;;;;;1.20;1.20;;;;;;;-1.88;87.65;98709.63;6156625;23;20010;-90
2024/01/19 07:23:01;;;;;;;1.20;1.20;;;;;;;-1.85;87.12;98712.47;6154906;23;20013;-91
2024/01/19 07:25:26;;;;;;;1.20;1.20;;;;;;;-1.84;86.88;98707.34;6130081;23;20316;-89
2024/01/19 07:28:01;;;;;;;1.20;1.20;;;;;;;-1.82;86.86;98712.69;6153355;23;20731;-92
2024/01/19 07:30:27;;;;;;;1.20;1.20;;;;;;;-1.74;86.39;98719.41;6130109;23;20018;-90
2024/01/19 07:32:53;;;;;;;1.20;1.20;;;;;;;-1.83;86.22;98717.00;6131155;23;20016;-90
2024/01/19 07:35:19;;;;;;;1.20;1.20;;;;;;;-1.85;86.44;98721.22;6131272;23;20436;-90
2024/01/19 07:37:45;;;;;;;1.20;1.20;;;;;;;-1.72;86.15;98728.31;6152953;23;20025;-91
2024/01/19 07:40:11;;;;;;;1.20;1.20;;;;;;;-1.72;86.23;98724.78;6154517;23;20468;-90
2024/01/19 07:42:37;;;;;;;1.20;1.20;;;;;;;-1.76;86.55;98734.09;6130213;23;20010;-90
2024/01/19 07:45:02;;;;;;;1.20;1.20;;;;;;;-1.69;86.32;98740.69;6160101;23;20097;-88
2024/01/19 07:47:32;;;;;;;1.20;1.20;;;;;;;-1.59;85.71;98738.88;6132657;23;19997;-90
2024/01/19 07:49:59;;;;;;;1.20;1.20;;;;;;;-1.55;85.34;98748.81;6157429;23;20029;-89
2024/01/19 07:52:24;;;;;;;1.30;1.30;;;;;;;-1.53;85.03;98748.94;6155470;23;20080;-90
2024/01/19 07:54:50;;;;;;;1.20;1.20;;;;;;;-1.46;85.16;98760.75;6157656;23;20088;-88
2024/01/19 07:57:16;;;;;;;1.10;1.10;;;;;;;-1.38;84.77;98771.03;6131835;23;20018;-91
2024/01/19 07:59:43;;;;;;;1.10;1.10;;;;;;;-1.22;83.97;98769.56;6128885;23;20017;-91
2024/01/19 08:02:10;;;;;;;1.20;1.20;;;;;;;-1.46;84.66;98772.13;6133281;23;20006;-91
2024/01/19 08:04:38;;;;;;;1.20;1.20;;;;;;;-1.45;84.45;98779.19;6159188;23;20511;-91
2024/01/19 08:07:04;;;;;;;1.20;1.20;;;;;;;-1.46;84.74;98784.31;6132986;23;20017;-89
2024/01/19 08:09:29;;;;;;;1.20;1.20;;;;;;;-1.48;84.96;98786.81;6158962;23;20017;-90
2024/01/19 08:11:55;;;;;;;1.10;1.10;;;;;;;-1.41;85.02;98785.56;6134301;23;20077;-90
2024/01/19 08:14:20;;;;;;;1.10;1.10;;;;;;;-1.23;83.93;98781.75;6142669;23;20040;-92
2024/01/19 08:16:46;;;;;;;1.10;1.10;;;;;;;-1.19;83.10;98783.81;6154256;23;20084;-92
2024/01/19 08:19:16;;;;;;;1.10;1.10;;;;;;;-1.09;82.95;98793.25;6148068;23;20065;-93
2024/01/19 08:21:43;;;;;;;1.10;1.10;;;;;;;-1.12;83.21;98799.16;6176639;23;20020;-92
2024/01/19 08:24:09;;;;;;;1.13;1.13;;;;;;;-1.04;82.79;98804.97;6143074;23;20006;-91
2024/01/19 08:26:35;;;;;;;1.20;1.20;;;;;;;-1.06;82.84;98811.78;6165660;23;20021;-91
2024/01/19 08:29:02;;;;;;;1.20;1.20;;;;;;;-1.10;83.01;98808.06;6142231;23;20013;-91
2024/01/19 08:31:29;;;;;;;1.10;1.10;;;;;;;-1.01;82.54;98818.28;6192792;23;20032;-90
2024/01/19 08:33:54;;;;;;;1.20;1.20;;;;;;;-0.94;82.85;98822.28;6144466;23;20061;-91
2024/01/19 08:36:24;;;;;;;1.10;1.10;;;;;;;-0.84;82.36;98820.47;6145092;23;20013;-90
2024/01/19 08:38:53;;;;;;;1.10;1.10;;;;;;;-0.79;81.63;98828.66;6143252;23;20013;-90
2024/01/19 08:41:20;;;;;;;1.20;1.20;;;;;;;-0.81;82.33;98820.69;6161213;23;20040;-90
2024/01/19 08:43:46;;;;;;;1.20;1.20;;;;;;;-0.72;81.99;98823.06;6174945;23;20024;-90
2024/01/19 08:46:12;;;;;;;1.10;1.10;;;;;;;-0.55;81.06;98819.09;6149235;23;20006;-90
2024/01/19 08:48:39;;;;;;;1.20;1.20;;;;;;;-0.68;80.93;98817.25;6173593;23;20330;-91
2024/01/19 08:51:05;;;;;;;1.20;1.20;;;;;;;-0.54;80.04;98826.16;6165454;23;20002;-91
2024/01/19 08:53:32;;;;;;;1.20;1.20;;;;;;;-0.45;79.64;98828.53;6118221;23;20025;-90
2024/01/19 08:55:57;;;;;;;1.17;1.17;;;;;;;-0.61;79.99;98839.59;6139232;23;20009;-90
2024/01/19 08:58:23;;;;;;;1.13;1.13;;;;;;;-0.55;79.88;98840.97;6162205;23;20032;-91
2024/01/19 09:00:48;;;;;;;1.10;1.10;;;;;;;-0.70;80.47;98852.94;6135312;23;20048;-92
2024/01/19 09:03:16;;;;;;;1.10;1.10;;;;;;;-0.62;80.61;98848.28;6159931;23;20170;-91
2024/01/19 09:05:41;;;;;;;1.20;1.20;;;;;;;-0.79;80.02;98860.09;6160754;23;20001;-91
2024/01/19 09:08:12;;;;;;;1.10;1.10;;;;;;;-0.92;80.76;98858.25;6185457;23;20012;-91
2024/01/19 09:10:37;;;;;;;1.20;1.20;;;;;;;-0.83;81.07;98863.28;6137187;23;20027;-91
2024/01/19 09:13:09;;;;;;;1.20;1.20;;;;;;;-0.72;80.07;98864.97;6161017;23;20005;-91
2024/01/19 09:15:38;;;;;;;1.10;1.10;;;;;;;-0.66;79.54;98875.03;6159175;23;20020;-89
2024/01/19 09:18:05;;;;;;;1.17;1.17;;;;;;;-0.64;79.90;98878.66;6157775;23;20072;-90
2024/01/19 09:20:33;;;;;;;1.10;1.10;;;;;;;-0.43;79.44;98880.28;6157961;23;20013;-90
2024/01/19 09:23:03;;;;;;;1.20;1.20;;;;;;;-0.34;79.21;98883.53;6157520;23;20032;-90
2024/01/19 09:25:29;;;;;;;1.05;1.05;;;;;;;-0.33;78.88;98889.72;6156747;23;20009;-91
2024/01/19 09:28:01;;;;;;;1.10;1.10;;;;;;;-0.21;78.22;98892.31;6156492;23;20017;-91
2024/01/19 09:30:27;;;;;;;1.20;1.20;;;;;;;-0.14;78.10;98899.88;6156031;23;20069;-91
2024/01/19 09:32:53;;;;;;;1.17;1.17;;;;;;;-0.20;78.20;98902.91;6131452;23;20330;-90
2024/01/19 09:35:19;;;;;;;1.08;1.08;;;;;;;-0.17;78.07;98904.88;6132579;23;20014;-93
2024/01/19 09:37:45;;;;;;;1.20;1.20;;;;;;;-0.33;78.73;98926.44;6157725;23;20084;-92
2024/01/19 09:40:11;;;;;;;1.20;1.20;;;;;;;-0.30;78.38;98918.78;6133009;23;20013;-92
2024/01/19 09:42:41;;;;;;;1.20;1.20;;;;;;;-0.40;78.93;98932.91;6156514;23;20014;-92
2024/01/19 09:45:19;;;;;;;1.13;1.13;;;;;;;-0.17;78.64;98928.47;6158157;23;20434;-92
2024/01/19 09:47:57;;;;;;;1.20;1.20;;;;;;;0.07;77.14;98931.97;6155004;23;20017;-91
2024/01/19 09:50:32;;;;;;;1.17;1.17;;;;;;;-0.06;76.54;98938.94;6133671;23;20020;-92
2024/01/19 09:52:59;;;;;;;1.20;1.20;;;;;;;-0.36;77.67;98948.06;6160087;23;20013;-92
2024/01/19 09:55:31;;;;;;;1.20;1.20;;;;;;;-0.33;77.93;98947.41;6133729;23;20044;-92
2024/01/19 09:57:58;;;;;;;1.20;1.20;;;;;;;-0.24;77.11;98949.75;6133851;23;20013;-92
2024/01/19 10:00:24;;;;;;;1.20;1.20;;;;;;;-0.24;77.34;98953.31;6180189;23;20659;-92
2024/01/19 10:02:54;;;;;;;1.20;1.20;;;;;;;-0.12;77.25;98959.47;6160411;23;20396;-92
2024/01/19 10:05:24;;;;;;;1.20;1.20;;;;;;;0.16;76.41;98961.50;6160209;23;20014;-91
2024/01/19 10:07:57;;;;;;;1.20;1.20;;;;;;;0.15;76.03;98962.31;6134543;23;20024;-92
2024/01/19 10:10:24;;;;;;;1.00;1.00;;;;;;;0.28;75.46;98964.09;6134405;23;20013;-93
2024/01/19 10:12:49;;;;;;;1.20;1.20;;;;;;;0.43;75.31;98960.88;6131703;23;20088;-92
2024/01/19 10:15:43;;;;;;;1.20;1.20;;;;;;;0.61;75.44;98965.63;6131741;23;20053;-93
2024/01/19 10:18:10;;;;;;;1.15;1.15;;;;;;;0.79;74.67;98961.66;6131581;23;20105;-92
2024/01/19 10:20:41;;;;;;;1.10;1.10;;;;;;;1.00;73.33;98970.13;6155509;23;20017;-92
2024/01/19 10:23:22;;;;;;;1.10;1.10;;;;;;;0.71;74.52;98971.63;6155510;23;20117;-91
2024/01/19 10:25:50;;;;;;;1.20;1.20;;;;;;;0.87;74.42;98975.34;6153467;23;20072;-91
2024/01/19 10:28:29;;;;;;;1.20;1.20;;;;;;;0.77;74.50;98977.34;6126879;23;20469;-91
2024/01/19 10:31:13;;;;;;;1.10;1.10;;;;;;;0.52;74.97;98986.88;6156649;23;20013;-91
2024/01/19 10:33:47;;;;;;;1.20;1.20;;;;;;;0.43;75.75;98987.13;6133623;23;20073;-92
2024/01/19 10:36:14;;;;;;;1.20;1.20;;;;;;;0.39;76.47;98992.97;6160738;23;20049;-91
2024/01/19 10:38:40;;;;;;;1.20;1.20;;;;;;;0.31;77.61;99004.59;6161795;23;20017;-91
2024/01/19 10:41:17;;;;;;;1.13;1.13;;;;;;;0.70;75.15;99000.41;6157539;23;20041;-90
2024/01/19 10:43:43;;;;;;;1.17;1.17;;;;;;;0.76;75.03;98996.50;6157108;23;20037;-91
2024/01/19 10:46:26;;;;;;;1.20;1.20;;;;;;;0.72;74.69;99002.34;6155655;23;20100;-89
2024/01/19 10:48:52;;;;;;;1.17;1.17;;;;;;;0.56;74.98;99003.75;6157407;23;20013;-89
2024/01/19 10:51:21;;;;;;;1.10;1.10;;;;;;;0.88;74.44;98993.84;6155717;23;20060;-90
2024/01/19 10:53:49;;;;;;;1.20;1.20;;;;;;;1.16;73.11;99001.03;6156299;23;20084;-89
2024/01/19 10:56:21;;;;;;;1.20;1.20;;;;;;;1.10;72.71;98992.72;6155252;23;20009;-89
2024/01/19 10:58:47;;;;;;;1.15;1.15;;;;;;;0.99;73.01;98989.34;6155855;23;20028;-89
2024/01/19 11:01:17;;;;;;;1.10;1.10;;;;;;;0.61;73.51;98994.50;6129998;23;20001;-90
2024/01/19 11:03:43;;;;;;;1.20;1.20;;;;;;;0.98;72.17;98993.69;6155367;23;20041;-90
2024/01/19 11:06:12;;;;;;;1.20;1.20;;;;;;;1.89;69.86;98992.00;6130546;23;20020;-90
2024/01/19 11:08:38;;;;;;;1.30;1.30;;;;;;;3.39;65.98;98986.72;6156216;23;20013;-90
2024/01/19 11:11:05;;;;;;;1.20;1.20;;;;;;;3.20;64.38;98973.22;6131499;23;20014;-89
2024/01/19 11:13:40;;;;;;;1.20;1.20;;;;;;;3.63;64.40;98983.75;6155046;23;20068;-91
2024/01/19 11:16:28;;;;;;;1.20;1.20;;;;;;;3.35;63.50;98984.72;6154754;23;20396;-90
2024/01/19 11:18:54;;;;;;;1.20;1.20;;;;;;;4.66;59.01;98975.72;6156218;23;20441;-91
2024/01/19 11:21:21;;;;;;;1.20;1.20;;;;;;;5.54;57.45;98976.97;6156037;23;20024;-90
2024/01/19 11:23:48;;;;;;;1.10;1.10;;;;;;;4.52;58.60;98976.66;6155135;23;20017;-90
2024/01/19 11:26:26;;;;;;;1.20;1.20;;;;;;;4.53;59.42;98978.47;6156513;23;20013;-90
2024/01/19 11:28:58;;;;;;;1.10;1.10;;;;;;;4.40;59.27;98989.16;6132126;23;20446;-90
2024/01/19 11:31:35;;;;;;;1.10;1.10;;;;;;;3.56;61.94;98987.75;6157598;23;20040;-90
2024/01/19 11:34:00;;;;;;;1.00;1.00;;;;;;;2.78;63.87;98997.00;6131633;23;20088;-91
2024/01/19 11:36:38;;;;;;;1.15;1.15;;;;;;;1.73;67.62;98995.34;6154922;23;20040;-88